Aérodrome :
LOGIN :

S'inscrire | Disclaimer

   EN    FR    IT 

 










Légende :    VFR   VFR Marginal   IFR   IFR Intensif   IFR Très Intensif
Visi : 
Plafond : 
>= 8 km
>= 3000ft
5 à 8 km
1000 à 3000 ft
1500m à 5 km
500 à 1000 ft
800 à 1500m
200 à 500 ft
< 800m
< 200 ft
Symboles :   Orages  Brouillard  Fortes neiges  Fortes précipitations  Vent > 20 kt
SIGMETs :   Divers  Orages  Givrage  Turbulence  Onde Orograph.  Cendres Volcan.







- Altitude de l'aérodrome : 13 ft
- Code IATA : LYX
- Voir les cartes d'approche


EGMD - Lydd

METARs EXPIRÉS :
  • 241420Z 23021KT 9000 BKN004 17/17 Q1015
  • 241350Z 23021KT 9999 BKN004 17/16 Q1015
  • 241320Z 23021KT 4500 -RA BKN003 17/17 Q1015
  • 241250Z 23022KT 1700 -RA BR BKN003 17/16 Q1015
  • 241220Z 23020KT 3500 -DZ BR SCT003 BKN005 17/17 Q1015
  • 241150Z 23019KT 2300 -DZ BR OVC004 17/17 Q1015

TAF TAF EGMD
Valide du 24 à 15h jusqu'au 25 à 00h UTC


241358Z 2415/2424 23019KT 9999 SCT003 BKN005
TEMPO 2415/2423 5000 -RADZ BKN003
PROB30
TEMPO 2415/2422 1400 DZ BR BKN001
ATIS : +44 1797 322 422
Pas de NOTAMs connus pour ce terrain.



MET'MAP, la Météo Aéronautique d'un coup d'oeil ! - Copyright ORBIFLY Décembre 2007 - Disclaimer

ORBIFLY MET'MAP TEAM :

Programmation & Développement : Alexandra Zaïnal
Conception & Développement : Baudouin d'Aumeries
Co-Programmation & Développement : Marc-Olivier Méhu
Soutien technique & logistique : Manuel Goepfert

Contact : metmap@orbifly.com




SOURCES & CREDITS :

   NOAA